createdAt,value
2017-11-13T00:00:28.325Z,7.88
2017-11-13T00:02:58.859Z,7.90
2017-11-13T00:05:27.726Z,7.95
2017-11-13T00:08:00.057Z,8.15
2017-11-13T00:10:29.080Z,8.24
2017-11-13T00:12:58.008Z,8.07
2017-11-13T00:15:27.666Z,7.67
2017-11-13T00:17:56.935Z,7.83
2017-11-13T00:20:25.855Z,7.81
2017-11-13T00:22:54.761Z,7.72
2017-11-13T00:25:23.706Z,7.92
2017-11-13T00:27:52.571Z,8.01
2017-11-13T00:30:22.433Z,7.74
2017-11-13T00:32:52.592Z,7.14
2017-11-13T00:35:21.535Z,7.49
2017-11-13T00:37:50.402Z,7.59
2017-11-13T00:40:19.370Z,7.87
2017-11-13T00:42:48.725Z,8.19
2017-11-13T00:45:17.771Z,8.22
2017-11-13T00:47:47.831Z,8.09
2017-11-13T00:50:17.089Z,7.74
2017-11-13T00:52:46.700Z,7.86
2017-11-13T00:55:15.870Z,7.24
2017-11-13T00:57:45.156Z,7.56
2017-11-13T01:00:14.877Z,7.22
2017-11-13T01:02:44.505Z,7.00
2017-11-13T01:05:13.419Z,6.09
2017-11-13T01:07:42.289Z,6.69
2017-11-13T01:10:11.487Z,6.98
2017-11-13T01:12:40.416Z,7.08
2017-11-13T01:15:09.990Z,7.46
2017-11-13T01:17:38.908Z,7.61
2017-11-13T01:20:07.745Z,7.65
2017-11-13T01:22:37.302Z,7.54
2017-11-13T01:25:06.132Z,7.59
2017-11-13T01:27:35.172Z,7.57
2017-11-13T01:30:04.464Z,7.91
2017-11-13T01:32:33.613Z,8.00
2017-11-13T01:35:02.727Z,7.72
2017-11-13T01:37:31.967Z,8.11
2017-11-13T01:40:01.052Z,7.58
2017-11-13T01:42:30.017Z,7.14
2017-11-13T01:44:59.181Z,7.13
2017-11-13T01:47:28.304Z,7.28
2017-11-13T01:49:57.147Z,7.53
2017-11-13T01:52:26.040Z,7.60
2017-11-13T01:54:54.824Z,7.79
2017-11-13T01:57:24.528Z,7.78
2017-11-13T01:59:53.632Z,7.41
2017-11-13T02:02:22.567Z,7.25
2017-11-13T02:04:51.431Z,7.48
2017-11-13T02:07:21.176Z,7.80
2017-11-13T02:09:50.191Z,7.53
2017-11-13T02:12:19.073Z,7.68
2017-11-13T02:14:48.694Z,7.86
2017-11-13T02:17:17.631Z,8.05
2017-11-13T02:19:47.615Z,8.23
2017-11-13T02:22:17.122Z,7.91
2017-11-13T02:24:47.112Z,7.74
2017-11-13T02:27:16.071Z,7.97
2017-11-13T02:29:45.383Z,7.88
2017-11-13T02:32:14.420Z,7.71
2017-11-13T02:34:43.462Z,7.38
2017-11-13T02:37:12.861Z,8.01
2017-11-13T02:39:41.888Z,8.14
2017-11-13T02:42:11.426Z,8.05
2017-11-13T02:44:41.431Z,8.08
2017-11-13T02:47:10.541Z,8.10
2017-11-13T02:49:39.492Z,7.84
2017-11-13T02:52:08.933Z,7.95
2017-11-13T02:54:37.984Z,7.24
2017-11-13T02:57:07.096Z,7.50
2017-11-13T02:59:36.126Z,7.21
2017-11-13T03:02:05.072Z,7.46
2017-11-13T03:04:34.215Z,7.79
2017-11-13T03:07:03.246Z,7.29
2017-11-13T03:09:32.428Z,7.76
2017-11-13T03:12:01.366Z,7.48
2017-11-13T03:14:30.966Z,7.60
2017-11-13T03:16:59.791Z,7.79
2017-11-13T03:19:29.383Z,8.30
2017-11-13T03:21:59.113Z,8.15
2017-11-13T03:24:28.005Z,8.03
2017-11-13T03:26:57.035Z,7.93
2017-11-13T03:29:25.841Z,7.99
2017-11-13T03:31:55.598Z,7.85
2017-11-13T03:34:25.712Z,7.56
2017-11-13T03:36:55.366Z,7.09
2017-11-13T03:39:24.253Z,7.45
2017-11-13T03:41:53.073Z,7.51
2017-11-13T03:44:21.901Z,7.70
2017-11-13T03:46:50.721Z,7.96
2017-11-13T03:49:19.578Z,7.59
2017-11-13T03:51:48.556Z,7.86
2017-11-13T03:54:17.751Z,8.04
2017-11-13T03:56:46.580Z,7.92
2017-11-13T03:59:15.691Z,8.05
2017-11-13T04:01:45.653Z,8.13
2017-11-13T04:04:14.487Z,8.15
2017-11-13T04:06:43.340Z,7.93
2017-11-13T04:09:12.291Z,7.84
2017-11-13T04:11:41.341Z,7.61
2017-11-13T04:14:12.527Z,7.82
2017-11-13T04:16:41.456Z,7.95
2017-11-13T04:19:10.644Z,8.23
2017-11-13T04:21:39.632Z,8.51
2017-11-13T04:24:09.222Z,8.55
2017-11-13T04:26:38.135Z,8.11
2017-11-13T04:29:07.292Z,8.58
2017-11-13T04:31:36.118Z,8.64
2017-11-13T04:34:05.062Z,8.27
2017-11-13T04:36:34.653Z,8.48
2017-11-13T04:39:05.220Z,8.22
2017-11-13T04:41:34.572Z,8.18
2017-11-13T04:44:03.579Z,7.80
2017-11-13T04:46:33.433Z,7.54
2017-11-13T04:49:02.624Z,8.08
2017-11-13T04:51:31.559Z,8.30
2017-11-13T04:54:00.367Z,8.55
2017-11-13T04:56:30.352Z,8.67
2017-11-13T04:58:59.188Z,8.53
2017-11-13T05:01:29.008Z,8.49
2017-11-13T05:03:58.108Z,8.56
2017-11-13T05:06:27.331Z,8.64
2017-11-13T05:08:56.909Z,8.73
2017-11-13T05:11:26.376Z,8.90
2017-11-13T05:13:55.328Z,8.97
2017-11-13T05:16:24.684Z,8.27
2017-11-13T05:18:55.264Z,8.66
2017-11-13T05:21:25.380Z,8.78
2017-11-13T05:23:55.751Z,8.81
2017-11-13T05:26:24.781Z,8.55
2017-11-13T05:28:53.692Z,8.38
2017-11-13T05:31:22.560Z,8.75
2017-11-13T05:33:51.672Z,8.58
2017-11-13T05:36:20.460Z,8.22
2017-11-13T05:38:49.297Z,7.68
2017-11-13T05:41:18.708Z,7.75
2017-11-13T05:43:47.589Z,8.02
2017-11-13T05:46:17.479Z,8.01
2017-11-13T05:48:47.568Z,7.63
2017-11-13T05:51:16.591Z,7.60
2017-11-13T05:53:45.404Z,7.71
2017-11-13T05:56:14.956Z,7.75
2017-11-13T05:58:44.058Z,8.17
2017-11-13T06:01:12.948Z,7.55
2017-11-13T06:03:42.119Z,7.86
2017-11-13T06:06:11.782Z,8.17
2017-11-13T06:08:41.380Z,8.20
2017-11-13T06:11:10.588Z,8.32
2017-11-13T06:13:40.123Z,8.45
2017-11-13T06:16:08.935Z,8.01
2017-11-13T06:18:38.740Z,8.20
2017-11-13T06:21:07.668Z,8.46
2017-11-13T06:23:36.543Z,8.40
2017-11-13T06:26:05.379Z,8.13
2017-11-13T06:28:34.542Z,8.43
2017-11-13T06:31:03.541Z,8.34
2017-11-13T06:33:33.524Z,8.45
2017-11-13T06:36:03.389Z,8.62
2017-11-13T06:38:32.826Z,8.23
2017-11-13T06:41:01.769Z,7.96
2017-11-13T06:43:31.410Z,7.53
2017-11-13T06:46:00.239Z,8.00
2017-11-13T06:48:29.830Z,8.33
2017-11-13T06:50:59.390Z,8.42
2017-11-13T06:53:28.251Z,8.38
2017-11-13T06:55:57.908Z,8.70
2017-11-13T06:58:26.765Z,7.40
2017-11-13T07:00:55.651Z,7.66
2017-11-13T07:03:25.568Z,7.18
2017-11-13T07:05:54.523Z,7.05
2017-11-13T07:08:23.688Z,6.59
2017-11-13T07:10:52.833Z,6.82
2017-11-13T07:13:22.482Z,7.19
2017-11-13T07:15:51.577Z,7.39
2017-11-13T07:18:20.432Z,7.16
2017-11-13T07:20:50.056Z,6.79
2017-11-13T07:23:18.851Z,6.59
2017-11-13T07:25:47.936Z,6.58
2017-11-13T07:28:16.768Z,6.37
2017-11-13T07:30:45.697Z,6.08
2017-11-13T07:33:15.632Z,7.02
2017-11-13T07:35:44.523Z,7.09
2017-11-13T07:38:14.625Z,7.10
2017-11-13T07:40:44.351Z,7.57
2017-11-13T07:43:14.368Z,7.72
2017-11-13T07:45:43.261Z,7.50
2017-11-13T07:48:13.159Z,7.42
2017-11-13T07:50:43.088Z,7.15
2017-11-13T07:53:11.975Z,7.39
2017-11-13T07:55:40.841Z,7.27
2017-11-13T07:58:09.764Z,7.22
2017-11-13T08:00:38.596Z,6.71
2017-11-13T08:03:07.441Z,5.30
2017-11-13T08:05:36.864Z,6.59
2017-11-13T08:08:05.762Z,6.24
2017-11-13T08:10:34.592Z,6.27
2017-11-13T08:13:05.817Z,6.59
2017-11-13T08:15:35.580Z,6.99
2017-11-13T08:18:05.290Z,7.17
2017-11-13T08:20:34.148Z,6.74
2017-11-13T08:23:03.399Z,6.59
2017-11-13T08:25:32.631Z,6.07
2017-11-13T08:28:01.802Z,6.66
2017-11-13T08:30:30.856Z,6.69
2017-11-13T08:32:59.836Z,6.97
2017-11-13T08:35:28.776Z,7.02
2017-11-13T08:37:57.602Z,6.73
2017-11-13T08:40:27.196Z,6.90
2017-11-13T08:42:56.805Z,6.09
2017-11-13T08:45:25.676Z,5.53
2017-11-13T08:47:56.117Z,6.10
2017-11-13T08:50:25.704Z,6.57
2017-11-13T08:52:55.413Z,6.32
2017-11-13T08:55:26.177Z,6.59
2017-11-13T08:57:55.000Z,6.93
2017-11-13T09:00:23.817Z,7.77
2017-11-13T09:02:53.465Z,7.19
2017-11-13T09:05:22.629Z,7.70
2017-11-13T09:07:52.812Z,7.35
2017-11-13T09:10:22.541Z,7.82
2017-11-13T09:12:54.622Z,7.89
2017-11-13T09:15:24.240Z,7.97
2017-11-13T09:17:53.826Z,8.42
2017-11-13T09:20:22.771Z,8.51
2017-11-13T09:22:52.739Z,8.86
2017-11-13T09:25:22.312Z,8.21
2017-11-13T09:27:51.180Z,7.72
2017-11-13T09:30:20.023Z,7.97
2017-11-13T09:32:50.056Z,8.04
2017-11-13T09:35:18.867Z,7.69
2017-11-13T09:37:48.022Z,8.08
2017-11-13T09:40:18.012Z,7.19
2017-11-13T09:42:47.628Z,7.25
2017-11-13T09:45:16.799Z,7.29
2017-11-13T09:47:46.053Z,6.59
2017-11-13T09:50:14.949Z,7.01
2017-11-13T09:52:44.447Z,7.68
2017-11-13T09:55:13.488Z,8.09
2017-11-13T09:57:43.135Z,8.14
2017-11-13T10:00:13.810Z,7.97
2017-11-13T10:02:43.290Z,6.97
2017-11-13T10:05:12.187Z,7.93
2017-11-13T10:07:41.835Z,8.33
2017-11-13T10:10:11.099Z,7.08
2017-11-13T10:12:40.116Z,6.83
2017-11-13T10:15:09.784Z,6.09
2017-11-13T10:17:39.126Z,6.05
2017-11-13T10:20:08.796Z,6.13
2017-11-13T10:22:38.775Z,6.42
2017-11-13T10:25:09.004Z,7.08
2017-11-13T10:27:38.711Z,7.18
2017-11-13T10:30:08.536Z,6.68
2017-11-13T10:32:37.785Z,6.70
2017-11-13T10:35:07.063Z,5.92
2017-11-13T10:37:35.914Z,6.60
2017-11-13T10:40:05.551Z,6.47
2017-11-13T10:42:34.436Z,6.39
2017-11-13T10:45:03.460Z,7.24
2017-11-13T10:47:32.812Z,7.92
2017-11-13T10:50:01.880Z,8.12
2017-11-13T10:52:31.488Z,7.88
2017-11-13T10:55:01.475Z,7.74
2017-11-13T10:57:31.342Z,6.76
2017-11-13T11:00:00.701Z,6.88
2017-11-13T11:02:29.817Z,7.45
2017-11-13T11:05:00.076Z,7.58
2017-11-13T11:07:29.077Z,8.54
2017-11-13T11:09:58.095Z,8.15
2017-11-13T11:12:27.468Z,8.50
2017-11-13T11:14:56.561Z,8.67
2017-11-13T11:17:25.612Z,7.88
2017-11-13T11:19:54.601Z,8.58
2017-11-13T11:22:24.302Z,8.96
2017-11-13T11:24:54.011Z,9.48
2017-11-13T11:27:22.984Z,9.41
2017-11-13T11:29:51.965Z,9.46
2017-11-13T11:32:20.936Z,8.76
2017-11-13T11:34:50.045Z,8.53
2017-11-13T11:37:19.801Z,8.71
2017-11-13T11:39:51.132Z,9.25
2017-11-13T11:42:20.090Z,8.38
2017-11-13T11:44:49.385Z,8.58
2017-11-13T11:47:18.633Z,8.71
2017-11-13T11:49:48.909Z,8.81
2017-11-13T11:52:18.015Z,8.31
2017-11-13T11:54:47.117Z,8.84
2017-11-13T11:57:16.191Z,9.27
2017-11-13T11:59:45.219Z,9.08
2017-11-13T12:02:14.481Z,8.80
2017-11-13T12:04:43.581Z,9.44
2017-11-13T12:07:12.656Z,8.84
2017-11-13T12:09:41.703Z,8.66
2017-11-13T12:12:11.324Z,8.03
2017-11-13T12:14:40.211Z,9.36
2017-11-13T12:17:09.097Z,9.80
2017-11-13T12:19:38.750Z,9.80
2017-11-13T12:22:08.479Z,9.37
2017-11-13T12:24:38.162Z,9.71
2017-11-13T12:27:07.849Z,10.39
2017-11-13T12:29:37.800Z,10.16
2017-11-13T12:32:06.674Z,10.31
2017-11-13T12:34:35.582Z,10.05
2017-11-13T12:37:05.598Z,9.69
2017-11-13T12:39:34.607Z,9.50
2017-11-13T12:42:03.484Z,9.06
2017-11-13T12:44:32.780Z,8.89
2017-11-13T12:47:01.761Z,8.55
2017-11-13T12:49:30.596Z,8.79
2017-11-13T12:52:01.619Z,8.32
2017-11-13T12:54:31.594Z,8.31
2017-11-13T12:57:01.210Z,8.57
2017-11-13T12:59:31.486Z,8.83
2017-11-13T13:02:00.606Z,8.60
2017-11-13T13:04:30.414Z,8.73
2017-11-13T13:06:59.306Z,9.02
2017-11-13T13:09:28.639Z,8.85
2017-11-13T13:11:57.553Z,8.96
2017-11-13T13:14:27.272Z,8.59
2017-11-13T13:16:56.163Z,8.40
2017-11-13T13:19:25.088Z,8.13
2017-11-13T13:21:53.899Z,7.56
2017-11-13T13:24:23.052Z,7.58
2017-11-13T13:26:51.966Z,6.83
2017-11-13T13:29:20.824Z,7.79
2017-11-13T13:31:50.625Z,8.23
2017-11-13T13:34:20.308Z,8.02
2017-11-13T13:36:49.281Z,8.36
2017-11-13T13:39:18.620Z,8.88
2017-11-13T13:41:48.208Z,8.83
2017-11-13T13:44:17.431Z,9.07
2017-11-13T13:46:46.604Z,8.93
2017-11-13T13:49:16.189Z,9.19
2017-11-13T13:51:45.101Z,8.75
2017-11-13T13:54:14.962Z,8.53
2017-11-13T13:56:43.944Z,8.59
2017-11-13T13:59:12.813Z,8.70
2017-11-13T14:01:41.843Z,8.89
2017-11-13T14:04:10.715Z,9.05
2017-11-13T14:06:39.566Z,9.22
2017-11-13T14:09:09.717Z,9.47
2017-11-13T14:11:38.686Z,9.37
2017-11-13T14:14:08.691Z,9.20
2017-11-13T14:16:38.297Z,8.65
2017-11-13T14:19:07.899Z,8.82
2017-11-13T14:21:38.046Z,9.10
2017-11-13T14:24:06.896Z,9.05
2017-11-13T14:26:35.826Z,9.23
2017-11-13T14:29:10.589Z,9.16
2017-11-13T14:31:39.691Z,8.76
2017-11-13T14:34:08.747Z,9.05
2017-11-13T14:36:37.955Z,8.74
2017-11-13T14:39:06.956Z,9.05
2017-11-13T14:41:35.809Z,9.21
2017-11-13T14:44:15.361Z,9.24
2017-11-13T14:46:44.247Z,9.34
2017-11-13T14:49:13.430Z,9.23
2017-11-13T14:51:42.409Z,9.20
2017-11-13T14:54:12.019Z,9.26
2017-11-13T14:56:41.644Z,8.95
2017-11-13T14:59:10.536Z,8.99
2017-11-13T15:01:40.152Z,9.03
2017-11-13T15:04:09.704Z,8.63
2017-11-13T15:06:41.103Z,8.86
2017-11-13T15:09:09.953Z,8.87
2017-11-13T15:11:39.552Z,8.85
2017-11-13T15:14:09.759Z,8.79
2017-11-13T15:16:38.607Z,8.69
2017-11-13T15:19:08.671Z,8.64
2017-11-13T15:24:10.631Z,8.50
2017-11-13T15:26:39.936Z,8.38
2017-11-13T15:29:08.796Z,8.19
2017-11-13T15:31:37.658Z,8.06
2017-11-13T15:34:06.896Z,7.93
2017-11-13T15:36:36.416Z,7.87
2017-11-13T15:39:08.865Z,7.88
2017-11-13T15:41:37.719Z,7.75
2017-11-13T15:44:06.583Z,7.69
2017-11-13T15:46:45.940Z,7.62
2017-11-13T15:49:14.854Z,7.45
2017-11-13T15:51:43.788Z,7.43
2017-11-13T15:54:12.942Z,7.39
2017-11-13T15:56:41.784Z,7.41
2017-11-13T15:59:10.608Z,7.38
2017-11-13T16:01:39.844Z,7.35
2017-11-13T16:04:09.011Z,7.34
2017-11-13T16:06:37.864Z,7.32
2017-11-13T16:09:07.513Z,7.29
2017-11-13T16:11:37.053Z,7.22
2017-11-13T16:14:07.280Z,7.12
2017-11-13T16:16:36.278Z,7.08
2017-11-13T16:19:06.284Z,7.00
2017-11-13T16:21:35.168Z,6.84
2017-11-13T16:24:04.155Z,6.81
2017-11-13T16:26:33.822Z,6.51
2017-11-13T16:29:02.873Z,6.60
2017-11-13T16:31:32.833Z,6.53
2017-11-13T16:34:04.561Z,6.41
2017-11-13T16:36:37.980Z,6.15
2017-11-13T16:39:34.163Z,6.34
2017-11-13T16:56:25.805Z,6.09
2017-11-13T16:58:56.037Z,6.21
2017-11-13T17:01:25.752Z,6.06
2017-11-13T17:04:20.015Z,6.09
2017-11-13T17:06:49.340Z,6.15
2017-11-13T17:09:18.753Z,6.14
2017-11-13T17:11:48.302Z,6.08
2017-11-13T17:17:53.714Z,6.07
2017-11-13T17:20:23.349Z,6.03
2017-11-13T17:22:52.584Z,6.03
2017-11-13T17:25:32.248Z,5.94
2017-11-13T17:28:02.125Z,5.96
2017-11-13T17:30:31.373Z,6.03
2017-11-13T17:33:00.689Z,6.20
2017-11-13T17:35:44.997Z,6.40
2017-11-13T17:38:14.323Z,6.54
2017-11-13T17:40:43.822Z,6.48
2017-11-13T17:43:13.505Z,6.64
2017-11-13T17:49:18.886Z,6.67
2017-11-13T17:51:48.413Z,6.76
2017-11-13T17:54:17.727Z,6.75
2017-11-13T17:56:47.116Z,6.92
2017-11-13T17:59:16.438Z,6.91
2017-11-13T18:01:45.978Z,7.08
2017-11-13T18:04:15.326Z,7.23
2017-11-13T18:06:44.940Z,7.28
2017-11-13T18:09:14.440Z,7.15
2017-11-13T18:11:44.949Z,7.17
2017-11-13T18:15:10.798Z,7.20
2017-11-13T18:17:41.810Z,7.38
2017-11-13T18:20:12.209Z,7.54
2017-11-13T18:23:23.343Z,7.50
2017-11-13T18:25:54.072Z,7.31
2017-11-13T18:28:23.969Z,7.50
2017-11-13T18:30:53.837Z,7.68
2017-11-13T18:33:23.253Z,7.77
2017-11-13T18:35:53.605Z,7.75
2017-11-13T18:38:28.568Z,7.86
2017-11-13T18:41:02.032Z,8.06
2017-11-13T18:43:42.381Z,8.16
2017-11-13T18:46:43.698Z,8.27
2017-11-13T18:49:19.703Z,8.33
2017-11-13T18:51:55.158Z,8.32
2017-11-13T18:54:28.593Z,8.30
2017-11-13T18:57:01.888Z,8.31
2017-11-13T19:04:41.288Z,8.27
2017-11-13T19:07:14.087Z,7.82
2017-11-13T19:09:43.486Z,7.85
2017-11-13T19:12:12.957Z,7.88
2017-11-13T19:14:44.353Z,7.85
2017-11-13T19:17:14.662Z,7.80
2017-11-13T19:19:43.892Z,7.79
2017-11-13T19:22:13.004Z,7.72
2017-11-13T19:24:42.028Z,7.69
2017-11-13T19:27:12.467Z,7.59
2017-11-13T19:29:41.512Z,7.51
2017-11-13T19:32:10.519Z,7.48
2017-11-13T19:34:40.279Z,7.49
2017-11-13T19:37:09.276Z,6.91
2017-11-13T19:39:39.051Z,7.19
2017-11-13T19:42:07.968Z,7.31
2017-11-13T19:44:40.628Z,7.16
2017-11-13T19:47:09.585Z,7.32
2017-11-13T19:49:41.333Z,7.50
2017-11-13T19:52:13.428Z,7.64
2017-11-13T19:54:44.712Z,7.46
2017-11-13T19:57:14.363Z,7.06
2017-11-13T19:59:43.962Z,7.15
2017-11-13T20:02:13.235Z,7.43
2017-11-13T20:04:42.433Z,7.72
2017-11-13T20:07:11.316Z,7.94
2017-11-13T20:09:40.884Z,7.68
2017-11-13T20:12:09.712Z,7.72
2017-11-13T20:14:38.573Z,8.03
2017-11-13T20:17:07.408Z,8.25
2017-11-13T20:19:36.248Z,8.20
2017-11-13T20:22:06.534Z,8.37
2017-11-13T20:24:35.362Z,8.71
2017-11-13T20:27:05.391Z,8.72
2017-11-13T20:29:37.512Z,8.73
2017-11-13T20:32:08.412Z,8.98
2017-11-13T20:34:37.341Z,8.95
2017-11-13T20:37:06.224Z,8.92
2017-11-13T20:39:35.801Z,9.12
2017-11-13T20:42:04.691Z,9.20
2017-11-13T20:44:33.540Z,8.72
2017-11-13T20:47:02.451Z,8.15
2017-11-13T20:49:31.819Z,8.24
2017-11-13T20:52:01.417Z,8.46
2017-11-13T20:54:30.643Z,8.69
2017-11-13T20:57:00.352Z,9.06
2017-11-13T20:59:29.243Z,8.99
2017-11-13T21:02:02.199Z,9.23
2017-11-13T21:04:31.374Z,9.29
2017-11-13T21:07:00.236Z,9.20
2017-11-13T21:09:29.226Z,9.33
2017-11-13T21:11:58.103Z,9.48
2017-11-13T21:14:27.696Z,9.61
2017-11-13T21:16:57.291Z,9.78
2017-11-13T21:19:26.181Z,9.87
2017-11-13T21:21:57.424Z,9.90
2017-11-13T21:24:27.243Z,9.75
2017-11-13T21:26:56.829Z,9.86
2017-11-13T21:29:26.045Z,10.04
2017-11-13T21:31:55.617Z,9.99
2017-11-13T21:34:24.456Z,9.83
2017-11-13T21:36:56.324Z,9.37
2017-11-13T21:39:25.155Z,9.87
2017-11-13T21:41:53.976Z,9.93
2017-11-13T21:44:24.527Z,9.82
2017-11-13T21:46:53.715Z,9.98
2017-11-13T21:49:22.596Z,10.16
2017-11-13T21:51:52.232Z,10.02
2017-11-13T21:54:21.079Z,9.96
2017-11-13T21:56:53.150Z,9.84
2017-11-13T21:59:22.704Z,9.93
2017-11-13T22:01:51.569Z,10.01
2017-11-13T22:04:20.364Z,10.15
2017-11-13T22:06:50.568Z,10.25
2017-11-13T22:09:19.376Z,10.04
2017-11-13T22:11:48.227Z,9.88
2017-11-13T22:14:17.811Z,9.49
2017-11-13T22:16:46.643Z,9.78
2017-11-13T22:19:19.084Z,10.06
2017-11-13T22:21:48.300Z,10.05
2017-11-13T22:24:17.128Z,10.17
2017-11-13T22:26:48.994Z,9.92
2017-11-13T22:29:17.848Z,9.85
2017-11-13T22:31:46.680Z,9.86
2017-11-13T22:34:15.559Z,10.03
2017-11-13T22:36:44.367Z,10.10
2017-11-13T22:39:14.120Z,10.17
2017-11-13T22:41:43.263Z,9.92
2017-11-13T22:44:12.149Z,9.88
2017-11-13T22:46:41.015Z,9.79
2017-11-13T22:49:09.867Z,9.91
2017-11-13T22:51:38.820Z,9.50
2017-11-13T22:54:08.079Z,9.27
2017-11-13T22:56:37.071Z,9.37
2017-11-13T22:59:05.928Z,9.31
2017-11-13T23:01:35.511Z,9.12
2017-11-13T23:04:04.391Z,9.32
2017-11-13T23:06:33.330Z,9.52
2017-11-13T23:09:02.344Z,9.64
2017-11-13T23:11:32.555Z,9.90
2017-11-13T23:14:01.527Z,9.90
2017-11-13T23:16:30.340Z,10.03
2017-11-13T23:19:01.447Z,9.98
2017-11-13T23:21:30.267Z,9.92
2017-11-13T23:23:59.109Z,9.90
2017-11-13T23:26:28.893Z,9.56
2017-11-13T23:28:57.700Z,9.25
2017-11-13T23:31:26.520Z,9.61
2017-11-13T23:33:55.396Z,9.64
2017-11-13T23:36:25.497Z,9.90
2017-11-13T23:38:55.148Z,9.75
2017-11-13T23:41:23.981Z,9.79
2017-11-13T23:43:53.216Z,9.82
2017-11-13T23:46:22.276Z,9.78
2017-11-13T23:48:51.116Z,9.93
2017-11-13T23:51:20.232Z,9.73
2017-11-13T23:53:49.036Z,9.56
2017-11-13T23:56:17.974Z,9.64
2017-11-13T23:58:46.970Z,9.55
